CYEG

Edmonton International Airport

Edmonton, Alberta, Canada
METAR CYEG 182000Z 28012KT 15SM SCT070 SCT120 SCT220 M00/M09 A2972 RMK AC3AC1CI1 AC TR SLP098
Observed Flight Rules
Dec-18 @ 20:00 UTC (23 minutes ago) Visual Flight Rules
Wind Visibility Clouds
280° at 12 knots 15 miles
  • Scattered at 7,000' AGL
  • Scattered at 12,000' AGL
  • Scattered at 22,000' AGL
Temperatures Readings
Current 0°C / 32°F
Dewpoint -9°C / 16°F
Humidity 51%
Altimeter 29.72" Hg
Pressure 1009.8 hPa
Elevation 723
METAR CYEG 182000Z 28012KT 15SM SCT070 SCT120 SCT220 M00/M09 A2972 RMK AC3AC1CI1 AC TR SLP098
Observed Flight Rules
Dec-18 @ 20:00 UTC
(23 minutes ago)
VFR
Wind Visibility
280° at 12 knots 15 miles
Clouds
  • Scattered at 7,000' AGL
  • Scattered at 12,000' AGL
  • Scattered at 22,000' AGL
Temperature Dewpoint
0°C / 32°F -9°C / 16°F
Humidity Altimeter Pressure
51% 29.72" Hg 1009.8 hPa